createdAt,value
2023-01-19T00:00:06.299Z,98601.29
2023-01-19T00:02:32.991Z,98596.77
2023-01-19T00:04:59.606Z,98600.08
2023-01-19T00:07:26.092Z,98601.64
2023-01-19T00:09:52.550Z,98607.36
2023-01-19T00:12:19.011Z,98610.48
2023-01-19T00:14:45.569Z,98605.81
2023-01-19T00:17:12.027Z,98600.07
2023-01-19T00:19:38.507Z,98608.39
2023-01-19T00:22:04.985Z,98611.35
2023-01-19T00:24:32.776Z,98603.37
2023-01-19T00:26:59.907Z,98602.67
2023-01-19T00:29:26.450Z,98603.20
2023-01-19T00:31:52.934Z,98598.17
2023-01-19T00:34:19.414Z,98596.26
2023-01-19T00:36:45.947Z,98596.06
2023-01-19T00:39:12.437Z,98599.73
2023-01-19T00:41:38.930Z,98598.16
2023-01-19T00:44:05.495Z,98600.94
2023-01-19T00:46:31.988Z,98604.22
2023-01-19T00:48:58.787Z,98604.91
2023-01-19T00:51:25.267Z,98600.08
2023-01-19T00:53:51.905Z,98600.06
2023-01-19T00:56:18.365Z,98600.23
2023-01-19T00:58:44.898Z,98594.71
2023-01-19T01:01:12.386Z,98590.73
2023-01-19T01:03:38.999Z,98589.50
2023-01-19T01:06:05.942Z,98591.60
2023-01-19T01:08:32.822Z,98592.98
2023-01-19T01:10:59.324Z,98592.98
2023-01-19T01:13:27.757Z,98584.48
2023-01-19T01:15:56.578Z,98575.64
2023-01-19T01:18:24.379Z,98572.88
2023-01-19T01:20:50.999Z,98574.10
2023-01-19T01:23:17.831Z,98571.36
2023-01-19T01:25:44.302Z,98572.08
2023-01-19T01:28:10.767Z,98573.48
2023-01-19T01:30:37.882Z,98580.11
2023-01-19T01:33:04.359Z,98587.09
2023-01-19T01:35:30.799Z,98580.34
2023-01-19T01:38:00.936Z,98583.31
2023-01-19T01:40:27.721Z,98580.58
2023-01-19T01:42:54.288Z,98574.35
2023-01-19T01:45:34.252Z,98564.48
2023-01-19T01:48:29.102Z,98562.41
2023-01-19T01:51:18.556Z,98572.48
2023-01-19T01:53:49.728Z,98573.54
2023-01-19T01:56:21.676Z,98580.98
2023-01-19T01:58:49.472Z,98584.30
2023-01-19T02:01:16.051Z,98592.62
2023-01-19T02:03:42.734Z,98597.14
2023-01-19T02:06:14.383Z,98602.00
2023-01-19T02:08:47.688Z,98607.55
2023-01-19T02:11:14.492Z,98611.03
2023-01-19T02:13:43.534Z,98604.64
2023-01-19T02:16:11.202Z,98589.39
2023-01-19T02:18:37.817Z,98563.76
2023-01-19T02:21:22.469Z,98545.91
2023-01-19T02:23:57.369Z,98553.38
2023-01-19T02:26:28.553Z,98577.46
2023-01-19T02:28:59.174Z,98604.50
2023-01-19T02:31:28.665Z,98621.46
2023-01-19T02:33:55.929Z,98631.34
2023-01-19T02:36:30.756Z,98638.11
2023-01-19T02:38:59.906Z,98623.21
2023-01-19T02:41:30.839Z,98603.48
2023-01-19T02:43:58.861Z,98586.49
2023-01-19T02:46:25.896Z,98585.12
2023-01-19T02:48:52.372Z,98578.71
2023-01-19T02:51:24.809Z,98571.10
2023-01-19T02:54:03.531Z,98567.98
2023-01-19T02:56:38.846Z,98574.22
2023-01-19T02:59:05.282Z,98594.65
2023-01-19T03:02:10.367Z,98602.95
2023-01-19T03:04:58.631Z,98609.54
2023-01-19T03:07:50.309Z,98617.32
2023-01-19T03:10:33.732Z,98614.55
2023-01-19T03:13:04.118Z,98613.52
2023-01-19T03:15:48.268Z,98617.66
2023-01-19T03:18:19.345Z,98619.58
2023-01-19T03:20:47.544Z,98635.85
2023-01-19T03:23:15.613Z,98649.86
2023-01-19T03:25:44.878Z,98648.48
2023-01-19T03:28:14.895Z,98633.08
2023-01-19T03:30:52.513Z,98622.70
2023-01-19T03:33:30.149Z,98612.82
2023-01-19T03:36:04.153Z,98598.46
2023-01-19T03:38:35.157Z,98575.43
2023-01-19T03:41:06.782Z,98556.05
2023-01-19T03:43:33.837Z,98555.19
2023-01-19T03:46:01.081Z,98557.77
2023-01-19T03:48:27.694Z,98557.27
2023-01-19T03:50:55.286Z,98564.88
2023-01-19T03:53:21.895Z,98560.90
2023-01-19T03:55:50.964Z,98585.30
2023-01-19T03:58:17.665Z,98591.01
2023-01-19T04:00:44.344Z,98599.48
2023-01-19T04:03:15.090Z,98616.77
2023-01-19T04:05:42.441Z,98620.92
2023-01-19T04:08:09.378Z,98610.53
2023-01-19T04:10:36.678Z,98600.48
2023-01-19T04:13:04.297Z,98605.86
2023-01-19T04:15:31.983Z,98600.66
2023-01-19T04:17:59.976Z,98591.31
2023-01-19T04:20:27.717Z,98598.92
2023-01-19T04:22:55.450Z,98598.58
2023-01-19T04:25:21.994Z,98593.20
2023-01-19T04:27:52.605Z,98601.14
2023-01-19T04:30:19.651Z,98608.91
2023-01-19T04:32:46.337Z,98613.23
2023-01-19T04:35:12.828Z,98611.66
2023-01-19T04:37:39.384Z,98607.33
2023-01-19T04:40:06.617Z,98607.48
2023-01-19T04:42:33.046Z,98593.81
2023-01-19T04:44:59.513Z,98586.73
2023-01-19T04:47:25.983Z,98587.06
2023-01-19T04:49:52.474Z,98590.16
2023-01-19T04:52:18.962Z,98588.42
2023-01-19T04:54:45.455Z,98588.42
2023-01-19T04:57:11.915Z,98591.52
2023-01-19T04:59:38.405Z,98593.25
2023-01-19T05:02:04.942Z,98605.52
2023-01-19T05:04:31.424Z,98610.55
2023-01-19T05:06:57.893Z,98611.92
2023-01-19T05:09:24.380Z,98614.34
2023-01-19T05:11:50.837Z,98620.05
2023-01-19T05:14:17.404Z,98609.65
2023-01-19T05:16:43.855Z,98608.09
2023-01-19T05:19:10.510Z,98626.75
2023-01-19T05:21:37.629Z,98645.92
2023-01-19T05:24:04.269Z,98656.63
2023-01-19T05:26:30.761Z,98668.91
2023-01-19T05:28:57.208Z,98671.68
2023-01-19T05:31:23.727Z,98674.10
2023-01-19T05:33:50.253Z,98671.17
2023-01-19T05:36:16.761Z,98671.88
2023-01-19T05:38:43.206Z,98671.55
2023-01-19T05:41:09.665Z,98672.95
2023-01-19T05:43:36.193Z,98665.52
2023-01-19T05:46:04.476Z,98653.27
2023-01-19T05:48:31.497Z,98640.66
2023-01-19T05:50:59.404Z,98643.09
2023-01-19T05:53:26.659Z,98651.74
2023-01-19T05:55:53.656Z,98646.22
2023-01-19T05:58:22.483Z,98629.46
2023-01-19T06:00:49.002Z,98615.45
2023-01-19T06:03:15.513Z,98608.20
2023-01-19T06:05:41.958Z,98620.46
2023-01-19T06:08:08.434Z,98638.96
2023-01-19T06:10:34.955Z,98645.71
2023-01-19T06:13:01.798Z,98635.19
2023-01-19T06:15:28.646Z,98611.85
2023-01-19T06:17:55.117Z,98611.17
2023-01-19T06:20:21.695Z,98629.85
2023-01-19T06:22:48.260Z,98628.66
2023-01-19T06:25:14.777Z,98608.25
2023-01-19T06:27:44.809Z,98611.88
2023-01-19T06:30:12.221Z,98612.94
2023-01-19T06:32:38.726Z,98603.95
2023-01-19T06:35:06.308Z,98602.73
2023-01-19T06:37:32.865Z,98613.48
2023-01-19T06:39:59.302Z,98628.70
2023-01-19T06:42:25.794Z,98645.48
2023-01-19T06:44:52.348Z,98647.56
2023-01-19T06:47:18.804Z,98654.48
2023-01-19T06:49:45.306Z,98660.71
2023-01-19T06:52:12.848Z,98660.73
2023-01-19T06:54:39.363Z,98662.45
2023-01-19T06:57:05.845Z,98655.37
2023-01-19T06:59:32.337Z,98650.16
2023-01-19T07:01:58.947Z,98647.25
2023-01-19T07:04:25.797Z,98647.93
2023-01-19T07:06:52.389Z,98643.44
2023-01-19T07:09:18.994Z,98636.52
2023-01-19T07:11:45.482Z,98645.16
2023-01-19T07:14:12.170Z,98646.71
2023-01-19T07:16:38.762Z,98648.10
2023-01-19T07:19:05.635Z,98644.83
2023-01-19T07:21:32.124Z,98636.18
2023-01-19T07:23:58.565Z,98638.77
2023-01-19T07:26:25.051Z,98642.41
2023-01-19T07:28:52.296Z,98654.18
2023-01-19T07:31:19.762Z,98665.08
2023-01-19T07:33:46.390Z,98665.95
2023-01-19T07:36:13.040Z,98668.54
2023-01-19T07:38:39.509Z,98663.34
2023-01-19T07:41:09.087Z,98659.55
2023-01-19T07:43:35.599Z,98664.73
2023-01-19T07:46:04.509Z,98661.11
2023-01-19T07:48:31.082Z,98669.08
2023-01-19T07:51:01.972Z,98677.04
2023-01-19T07:53:28.469Z,98688.13
2023-01-19T07:55:57.875Z,98690.02
2023-01-19T07:58:25.101Z,98691.23
2023-01-19T08:00:51.632Z,98689.34
2023-01-19T08:03:18.222Z,98675.31
2023-01-19T08:05:45.513Z,98668.04
2023-01-19T08:08:12.072Z,98680.33
2023-01-19T08:10:38.624Z,98677.90
2023-01-19T08:13:05.096Z,98673.59
2023-01-19T08:15:31.563Z,98665.11
2023-01-19T08:18:00.691Z,98664.06
2023-01-19T08:20:28.287Z,98660.60
2023-01-19T08:22:55.260Z,98658.35
2023-01-19T08:25:21.702Z,98665.13
2023-01-19T08:27:48.181Z,98672.04
2023-01-19T08:30:14.780Z,98679.31
2023-01-19T08:32:41.305Z,98680.53
2023-01-19T08:35:08.281Z,98680.70
2023-01-19T08:37:34.763Z,98679.14
2023-01-19T08:40:01.495Z,98682.42
2023-01-19T08:42:28.157Z,98679.84
2023-01-19T08:44:58.101Z,98678.46
2023-01-19T08:47:25.100Z,98680.20
2023-01-19T08:49:51.696Z,98679.33
2023-01-19T08:52:18.192Z,98684.52
2023-01-19T08:54:44.728Z,98683.82
2023-01-19T08:57:11.181Z,98686.60
2023-01-19T08:59:37.653Z,98687.29
2023-01-19T09:02:04.229Z,98686.27
2023-01-19T09:04:30.870Z,98685.56
2023-01-19T09:06:57.616Z,98677.08
2023-01-19T09:09:24.088Z,98673.61
2023-01-19T09:11:50.591Z,98665.98
2023-01-19T09:14:17.093Z,98665.82
2023-01-19T09:16:43.776Z,98663.22
2023-01-19T09:19:10.277Z,98671.55
2023-01-19T09:21:36.782Z,98678.30
2023-01-19T09:24:03.433Z,98678.81
2023-01-19T09:26:32.164Z,98673.44
2023-01-19T09:28:59.450Z,98671.02
2023-01-19T09:31:26.020Z,98667.73
2023-01-19T09:33:52.598Z,98670.66
2023-01-19T09:36:19.122Z,98678.11
2023-01-19T09:38:45.623Z,98686.27
2023-01-19T09:41:19.520Z,98684.17
2023-01-19T09:43:51.444Z,98689.72
2023-01-19T09:46:23.999Z,98688.51
2023-01-19T09:48:55.637Z,98684.01
2023-01-19T09:51:23.241Z,98678.46
2023-01-19T09:53:59.155Z,98675.85
2023-01-19T09:56:28.096Z,98672.57
2023-01-19T09:58:54.608Z,98672.74
2023-01-19T10:01:34.821Z,98680.88
2023-01-19T10:04:27.526Z,98691.80
2023-01-19T10:07:16.523Z,98701.16
2023-01-19T10:10:02.102Z,98704.96
2023-01-19T10:12:43.501Z,98706.53
2023-01-19T10:15:28.190Z,98706.87
2023-01-19T10:18:12.795Z,98699.95
2023-01-19T10:20:50.546Z,98701.67
2023-01-19T10:23:25.043Z,98698.73
2023-01-19T10:25:52.309Z,98706.17
2023-01-19T10:28:25.395Z,98704.96
2023-01-19T10:30:54.818Z,98704.62
2023-01-19T10:33:21.496Z,98706.01
2023-01-19T10:35:47.996Z,98707.22
2023-01-19T10:38:17.429Z,98709.81
2023-01-19T10:40:57.611Z,98713.96
2023-01-19T10:43:45.203Z,98721.08
2023-01-19T10:46:21.288Z,98722.30
2023-01-19T10:48:53.133Z,98725.40
2023-01-19T10:51:20.538Z,98725.58
2023-01-19T10:54:13.285Z,98715.01
2023-01-19T10:56:40.405Z,98715.35
2023-01-19T10:59:27.376Z,98722.10
2023-01-19T11:02:16.005Z,98715.34
2023-01-19T11:04:43.036Z,98722.77
2023-01-19T11:07:20.004Z,98728.65
2023-01-19T11:09:48.075Z,98719.30
2023-01-19T11:12:22.968Z,98718.93
2023-01-19T11:14:51.090Z,98714.08
2023-01-19T11:17:21.316Z,98713.70
2023-01-19T11:20:02.524Z,98714.92
2023-01-19T11:22:32.868Z,98724.95
2023-01-19T11:25:02.213Z,98733.77
2023-01-19T11:27:30.867Z,98734.45
2023-01-19T11:30:02.928Z,98729.60
2023-01-19T11:32:32.340Z,98729.45
2023-01-19T11:34:59.767Z,98738.11
2023-01-19T11:37:31.852Z,98738.48
2023-01-19T11:40:00.257Z,98736.56
2023-01-19T11:42:30.125Z,98744.00
2023-01-19T11:45:19.086Z,98746.42
2023-01-19T11:47:47.670Z,98746.60
2023-01-19T11:50:37.753Z,98742.46
2023-01-19T11:53:17.450Z,98741.60
2023-01-19T11:55:48.216Z,98743.69
2023-01-19T11:58:18.275Z,98750.29
2023-01-19T12:00:46.698Z,98754.61
2023-01-19T12:03:17.764Z,98762.58
2023-01-19T12:05:49.040Z,98759.13
2023-01-19T12:08:34.345Z,98762.05
2023-01-19T12:11:03.580Z,98761.00
2023-01-19T12:13:32.373Z,98764.45
2023-01-19T12:16:09.377Z,98773.61
2023-01-19T12:18:41.248Z,98778.61
2023-01-19T12:21:08.038Z,98776.55
2023-01-19T12:23:55.463Z,98772.94
2023-01-19T12:26:21.924Z,98775.02
2023-01-19T12:28:51.066Z,98782.13
2023-01-19T12:31:19.841Z,98785.60
2023-01-19T12:33:47.231Z,98789.06
2023-01-19T12:36:16.728Z,98791.33
2023-01-19T12:38:49.172Z,98796.88
2023-01-19T12:41:19.591Z,98802.41
2023-01-19T12:43:48.003Z,98805.34
2023-01-19T12:46:32.636Z,98810.69
2023-01-19T12:49:17.696Z,98813.63
2023-01-19T12:51:44.716Z,98817.25
2023-01-19T12:54:26.549Z,98821.39
2023-01-19T12:56:59.155Z,98828.14
2023-01-19T12:59:27.316Z,98827.96
2023-01-19T13:02:24.890Z,98828.66
2023-01-19T13:05:11.480Z,98834.56
2023-01-19T13:08:02.568Z,98839.92
2023-01-19T13:10:53.943Z,98851.89
2023-01-19T13:13:30.682Z,98860.38
2023-01-19T13:16:20.893Z,98871.27
2023-01-19T13:19:05.326Z,98875.58
2023-01-19T13:21:43.607Z,98880.42
2023-01-19T13:24:21.903Z,98883.89
2023-01-19T13:26:51.248Z,98881.83
2023-01-19T13:29:36.433Z,98889.09
2023-01-19T13:32:15.390Z,98892.20
2023-01-19T13:34:52.083Z,98895.31
2023-01-19T13:37:21.903Z,98899.98
2023-01-19T13:39:51.593Z,98906.20
2023-01-19T13:42:28.011Z,98915.34
2023-01-19T13:44:57.719Z,98918.27
2023-01-19T13:47:38.932Z,98924.13
2023-01-19T13:50:08.406Z,98929.14
2023-01-19T13:52:34.849Z,98928.45
2023-01-19T13:55:04.087Z,98926.36
2023-01-19T13:57:31.837Z,98928.59
2023-01-19T14:00:10.479Z,98936.20
2023-01-19T14:02:40.953Z,98932.41
2023-01-19T14:05:19.723Z,98935.54
2023-01-19T14:07:46.273Z,98939.19
2023-01-19T14:10:15.922Z,98942.96
2023-01-19T14:12:58.148Z,98945.18
2023-01-19T14:15:26.137Z,98934.44
2023-01-19T14:18:18.882Z,98933.59
2023-01-19T14:21:17.935Z,98926.69
2023-01-19T14:23:48.991Z,98927.38
2023-01-19T14:26:37.324Z,98929.61
2023-01-19T14:29:09.632Z,98936.84
2023-01-19T14:32:00.703Z,98953.43
2023-01-19T14:34:33.424Z,98962.92
2023-01-19T14:37:01.560Z,98964.62
2023-01-19T14:39:31.561Z,98960.11
2023-01-19T14:42:00.653Z,98966.16
2023-01-19T14:44:38.518Z,98970.45
2023-01-19T14:47:07.204Z,98979.59
2023-01-19T14:49:41.441Z,98997.05
2023-01-19T14:52:23.602Z,98998.07
2023-01-19T14:54:50.677Z,98992.71
2023-01-19T14:57:17.159Z,98995.09
2023-01-19T14:59:43.620Z,99004.76
2023-01-19T15:02:10.223Z,99021.48
2023-01-19T15:04:36.838Z,99037.36
2023-01-19T15:07:03.316Z,99048.72
2023-01-19T15:09:30.024Z,99055.48
2023-01-19T15:11:56.572Z,99059.46
2023-01-19T15:14:23.103Z,99057.19
2023-01-19T15:16:50.121Z,99056.82
2023-01-19T15:19:17.534Z,99051.09
2023-01-19T15:21:44.609Z,99049.85
2023-01-19T15:24:12.240Z,99045.16
2023-01-19T15:26:41.775Z,99028.04
2023-01-19T15:29:14.499Z,99017.14
2023-01-19T15:31:41.036Z,99026.46
2023-01-19T15:34:11.842Z,99036.31
2023-01-19T15:36:38.414Z,99041.84
2023-01-19T15:39:04.875Z,99051.34
2023-01-19T15:41:31.719Z,99063.93
2023-01-19T15:43:58.906Z,99065.48
2023-01-19T15:46:25.994Z,99059.26
2023-01-19T15:48:53.928Z,99059.39
2023-01-19T15:51:23.276Z,99070.11
2023-01-19T15:53:49.860Z,99082.19
2023-01-19T15:56:22.014Z,99084.92
2023-01-19T15:58:48.706Z,99085.91
2023-01-19T16:01:17.734Z,99097.48
2023-01-19T16:03:44.517Z,99118.02
2023-01-19T16:06:11.379Z,99132.66
2023-01-19T16:08:37.941Z,99142.85
2023-01-19T16:11:10.455Z,99137.34
2023-01-19T16:16:23.271Z,99126.45
2023-01-19T16:18:51.535Z,99137.48
2023-01-19T16:21:24.676Z,99148.71
2023-01-19T16:23:55.317Z,99155.97
2023-01-19T16:26:35.984Z,99167.05
2023-01-19T16:29:12.581Z,99175.69
2023-01-19T16:31:43.957Z,99181.19
2023-01-19T16:34:19.180Z,99186.57
2023-01-19T16:36:52.931Z,99187.62
2023-01-19T16:39:20.031Z,99192.29
2023-01-19T16:41:47.687Z,99195.73
2023-01-19T16:44:26.905Z,99199.35
2023-01-19T16:46:59.306Z,99203.70
2023-01-19T16:49:28.516Z,99204.56
2023-01-19T16:51:57.864Z,99209.06
2023-01-19T16:57:11.349Z,99215.67
2023-01-19T16:59:48.214Z,99230.88
2023-01-19T17:02:16.498Z,99236.05
2023-01-19T17:04:54.270Z,99231.91
2023-01-19T17:07:34.406Z,99230.48
2023-01-19T17:10:01.980Z,99240.52
2023-01-19T17:12:30.142Z,99247.10
2023-01-19T17:14:58.523Z,99246.25
2023-01-19T17:17:25.027Z,99248.99
2023-01-19T17:19:51.501Z,99251.58
2023-01-19T17:22:17.984Z,99255.72
2023-01-19T17:24:44.473Z,99252.73
2023-01-19T17:27:10.965Z,99256.83
2023-01-19T17:29:37.441Z,99257.13
2023-01-19T17:32:04.191Z,99257.30
2023-01-19T17:34:30.667Z,99266.30
2023-01-19T17:36:57.296Z,99268.02
2023-01-19T17:39:23.782Z,99274.59
2023-01-19T17:41:50.428Z,99281.50
2023-01-19T17:44:16.880Z,99287.41
2023-01-19T17:46:43.371Z,99297.44
2023-01-19T17:49:11.079Z,99296.21
2023-01-19T17:51:37.636Z,99300.73
2023-01-19T17:54:04.154Z,99300.77
2023-01-19T17:56:31.329Z,99303.52
2023-01-19T17:58:58.754Z,99294.36
2023-01-19T18:01:28.203Z,99286.73
2023-01-19T18:03:55.554Z,99287.08
2023-01-19T18:06:22.522Z,99285.14
2023-01-19T18:08:49.587Z,99291.15
2023-01-19T18:11:18.577Z,99294.55
2023-01-19T18:13:49.326Z,99297.27
2023-01-19T18:16:22.747Z,99300.88
2023-01-19T18:18:49.599Z,99309.00
2023-01-19T18:21:17.356Z,99308.28
2023-01-19T18:23:43.934Z,99307.39
2023-01-19T18:26:13.572Z,99314.13
2023-01-19T18:28:40.094Z,99313.42
2023-01-19T18:31:08.916Z,99310.29
2023-01-19T18:33:36.614Z,99314.57
2023-01-19T18:36:03.567Z,99318.17
2023-01-19T18:38:30.087Z,99322.32
2023-01-19T18:41:10.277Z,99322.95
2023-01-19T18:43:37.124Z,99326.84
2023-01-19T18:46:04.046Z,99328.17
2023-01-19T18:48:32.845Z,99330.20
2023-01-19T18:50:59.611Z,99331.23
2023-01-19T18:53:26.152Z,99329.66
2023-01-19T18:55:54.841Z,99333.28
2023-01-19T18:58:22.004Z,99329.83
2023-01-19T19:00:49.156Z,99337.79
2023-01-19T19:03:16.344Z,99343.14
2023-01-19T19:05:43.265Z,99340.89
2023-01-19T19:08:09.819Z,99346.41
2023-01-19T19:10:36.333Z,99345.52
2023-01-19T19:13:02.986Z,99354.80
2023-01-19T19:15:29.466Z,99356.30
2023-01-19T19:17:55.988Z,99356.59
2023-01-19T19:20:22.463Z,99358.45
2023-01-19T19:22:49.598Z,99359.45
2023-01-19T19:25:16.103Z,99359.27
2023-01-19T19:27:42.615Z,99361.86
2023-01-19T19:30:09.559Z,99363.76
2023-01-19T19:32:37.241Z,99369.78
2023-01-19T19:35:04.050Z,99377.83
2023-01-19T19:37:30.582Z,99385.09
2023-01-19T19:39:57.084Z,99387.13
2023-01-19T19:42:24.455Z,99391.77
2023-01-19T19:44:50.930Z,99403.46
2023-01-19T19:47:20.422Z,99409.08
2023-01-19T19:49:46.926Z,99411.64
2023-01-19T19:52:13.416Z,99413.67
2023-01-19T19:54:39.887Z,99415.88
2023-01-19T19:57:06.553Z,99426.75
2023-01-19T19:59:33.080Z,99422.61
2023-01-19T20:01:59.632Z,99425.38
2023-01-19T20:04:26.252Z,99423.11
2023-01-19T20:06:52.729Z,99426.20
2023-01-19T20:09:19.209Z,99422.13
2023-01-19T20:11:46.289Z,99416.21
2023-01-19T20:14:13.944Z,99414.80
2023-01-19T20:16:40.539Z,99413.54
2023-01-19T20:19:07.489Z,99412.47
2023-01-19T20:21:36.684Z,99410.49
2023-01-19T20:24:06.373Z,99415.50
2023-01-19T20:26:39.159Z,99422.94
2023-01-19T20:29:06.306Z,99430.23
2023-01-19T20:31:35.765Z,99439.02
2023-01-19T20:34:05.272Z,99437.06
2023-01-19T20:36:33.211Z,99436.52
2023-01-19T20:39:00.262Z,99430.48
2023-01-19T20:41:27.258Z,99432.57
2023-01-19T20:43:54.266Z,99434.13
2023-01-19T20:46:20.851Z,99437.40
2023-01-19T20:48:47.520Z,99443.25
2023-01-19T20:51:14.084Z,99440.55
2023-01-19T20:53:41.295Z,99436.38
2023-01-19T20:56:11.666Z,99425.91
2023-01-19T20:58:38.314Z,99420.14
2023-01-19T21:01:14.182Z,99410.10
2023-01-19T21:03:41.417Z,99410.41
2023-01-19T21:06:08.354Z,99421.77
2023-01-19T21:08:35.631Z,99428.30
2023-01-19T21:11:02.685Z,99435.73
2023-01-19T21:13:29.389Z,99437.30
2023-01-19T21:15:56.093Z,99429.83
2023-01-19T21:18:22.731Z,99430.15
2023-01-19T21:20:49.257Z,99433.24
2023-01-19T21:23:16.128Z,99439.83
2023-01-19T21:25:53.838Z,99440.70
2023-01-19T21:28:21.056Z,99444.67
2023-01-19T21:30:47.594Z,99450.20
2023-01-19T21:33:14.263Z,99448.34
2023-01-19T21:35:40.737Z,99442.48
2023-01-19T21:38:07.217Z,99446.42
2023-01-19T21:40:33.685Z,99461.45
2023-01-19T21:43:00.142Z,99487.54
2023-01-19T21:45:26.680Z,99510.52
2023-01-19T21:47:53.151Z,99531.23
2023-01-19T21:50:19.646Z,99543.18
2023-01-19T21:52:46.211Z,99549.27
2023-01-19T21:55:12.939Z,99547.38
2023-01-19T21:57:39.563Z,99538.23
2023-01-19T22:00:06.875Z,99520.30
2023-01-19T22:02:38.594Z,99502.69
2023-01-19T22:05:06.053Z,99501.84
2023-01-19T22:07:32.581Z,99505.45
2023-01-19T22:09:59.032Z,99509.59
2023-01-19T22:12:25.788Z,99511.02
2023-01-19T22:14:52.777Z,99512.97
2023-01-19T22:17:19.281Z,99501.08
2023-01-19T22:19:45.803Z,99491.91
2023-01-19T22:22:12.266Z,99487.77
2023-01-19T22:24:38.702Z,99491.20
2023-01-19T22:27:05.193Z,99496.70
2023-01-19T22:29:31.700Z,99511.90
2023-01-19T22:31:58.139Z,99516.55
2023-01-19T22:34:24.653Z,99518.66
2023-01-19T22:36:51.108Z,99518.39
2023-01-19T22:39:17.721Z,99515.69
2023-01-19T22:41:46.202Z,99511.73
2023-01-19T22:44:16.242Z,99504.80
2023-01-19T22:46:43.513Z,99505.81
2023-01-19T22:49:13.758Z,99505.31
2023-01-19T22:51:40.469Z,99504.64
2023-01-19T22:54:07.350Z,99497.92
2023-01-19T22:56:35.921Z,99495.04
2023-01-19T22:59:04.026Z,99487.30
2023-01-19T23:01:36.453Z,99486.61
2023-01-19T23:04:05.007Z,99479.95
2023-01-19T23:06:34.189Z,99469.78
2023-01-19T23:09:03.305Z,99465.98
2023-01-19T23:11:35.737Z,99470.02
2023-01-19T23:14:03.894Z,99466.20
2023-01-19T23:16:30.648Z,99463.63
2023-01-19T23:18:58.735Z,99456.08
2023-01-19T23:21:28.137Z,99445.36
2023-01-19T23:23:56.317Z,99450.02
2023-01-19T23:26:23.466Z,99446.58
2023-01-19T23:29:00.497Z,99455.08
2023-01-19T23:31:37.306Z,99461.05
2023-01-19T23:34:07.146Z,99460.88
2023-01-19T23:36:35.619Z,99470.75
2023-01-19T23:39:05.967Z,99483.77
2023-01-19T23:41:33.948Z,99488.30
2023-01-19T23:44:00.868Z,99492.70
2023-01-19T23:46:28.128Z,99494.80
2023-01-19T23:48:54.772Z,99493.78
2023-01-19T23:51:27.592Z,99486.33
2023-01-19T23:53:54.465Z,99480.23
2023-01-19T23:56:32.101Z,99475.20
2023-01-19T23:59:08.063Z,99477.06
